Time;durP1;ratioP1;P1;durP2;ratioP2;P2;SDS_P1;SDS_P2;PMS_P1;PMS_P2;Temp;Humidity;BMP_temperature;BMP_pressure;BME280_temperature;BME280_humidity;BME280_pressure;Samples;Min_cycle;Max_cycle;Signal;HPM_P1;HPM_P2
2021/07/22 00:00:25;;;;;;;;;;;15.60;99.90;;;;;;5091157;28;19920;-72
2021/07/22 00:02:51;;;;;;;;;;;15.60;99.90;;;;;;5091520;28;19912;-72
2021/07/22 00:05:17;;;;;;;;;;;15.50;99.90;;;;;;5092118;28;19908;-72
2021/07/22 00:07:46;;;;;;;;;;;15.40;99.90;;;;;;5090463;28;19908;-72
2021/07/22 00:10:11;;;;;;;;;;;15.40;99.90;;;;;;5091802;28;19916;-72
2021/07/22 00:12:37;;;;;;;;;;;15.30;99.90;;;;;;5091425;28;19908;-72
2021/07/22 00:15:03;;;;;;;;;;;15.30;99.90;;;;;;5092012;28;19912;-72
2021/07/22 00:17:29;;;;;;;;;;;15.30;99.90;;;;;;5091430;28;19915;-72
2021/07/22 00:19:54;;;;;;;;;;;15.30;99.90;;;;;;5091389;28;19908;-73
2021/07/22 00:22:19;;;;;;;;;;;15.30;99.90;;;;;;5091613;28;19955;-73
2021/07/22 00:24:45;;;;;;;;;;;15.20;99.90;;;;;;5091689;28;19916;-72
2021/07/22 00:27:14;;;;;;;;;;;15.20;99.90;;;;;;5091005;28;19909;-73
2021/07/22 00:29:39;;;;;;;;;;;15.20;99.90;;;;;;5090358;28;19908;-72
2021/07/22 00:32:05;;;;;;;;;;;15.20;99.90;;;;;;5091194;28;19957;-72
2021/07/22 00:34:30;;;;;;;;;;;15.20;99.90;;;;;;5091216;28;20283;-72
2021/07/22 00:36:56;;;;;;;;;;;15.10;99.90;;;;;;5091038;28;19908;-72
2021/07/22 00:39:21;;;;;;;;;;;15.10;99.90;;;;;;5091144;28;20011;-72
2021/07/22 00:41:47;;;;;;;;;;;15.10;99.90;;;;;;5091323;28;20360;-72
2021/07/22 00:44:12;;;;;;;;;;;15.10;99.90;;;;;;5089863;28;20342;-72
2021/07/22 00:46:38;;;;;;;;;;;15.10;99.90;;;;;;5090911;28;19923;-72
2021/07/22 00:49:07;;;;;;;;;;;15.00;99.90;;;;;;5091326;28;20414;-72
2021/07/22 00:51:32;;;;;;;;;;;15.00;99.90;;;;;;5090933;28;20555;-72
2021/07/22 00:53:58;;;;;;;;;;;14.80;99.90;;;;;;5091356;28;20007;-72
2021/07/22 00:56:23;;;;;;;;;;;14.70;99.90;;;;;;5090424;28;19942;-72
2021/07/22 00:58:49;;;;;;;;;;;14.70;99.90;;;;;;5091218;28;19943;-72
2021/07/22 01:01:14;;;;;;;;;;;14.70;99.90;;;;;;5089954;28;19912;-72
2021/07/22 01:03:40;;;;;;;;;;;14.80;99.90;;;;;;5091272;28;19973;-72
2021/07/22 01:06:05;;;;;;;;;;;14.80;99.90;;;;;;5090428;28;20420;-73
2021/07/22 01:08:31;;;;;;;;;;;14.80;99.90;;;;;;5091025;28;20277;-72
2021/07/22 01:10:56;;;;;;;;;;;14.80;99.90;;;;;;5090562;28;19912;-73
2021/07/22 01:13:22;;;;;;;;;;;14.70;99.90;;;;;;5088974;28;19961;-72
2021/07/22 01:15:47;;;;;;;;;;;14.70;99.90;;;;;;5091397;28;19963;-73
2021/07/22 01:18:13;;;;;;;;;;;14.60;99.90;;;;;;5091860;28;19912;-73
2021/07/22 01:20:38;;;;;;;;;;;14.60;99.90;;;;;;5095037;28;19954;-73
2021/07/22 01:23:04;;;;;;;;;;;14.60;99.90;;;;;;5094978;28;19911;-73
2021/07/22 01:25:29;;;;;;;;;;;14.60;99.90;;;;;;5095025;28;20377;-73
2021/07/22 01:27:55;;;;;;;;;;;14.60;99.90;;;;;;5094174;28;20002;-73
2021/07/22 01:30:21;;;;;;;;;;;14.60;99.90;;;;;;5094050;28;19916;-73
2021/07/22 01:32:46;;;;;;;;;;;14.60;99.90;;;;;;5094371;28;19908;-73
2021/07/22 01:35:12;;;;;;;;;;;14.60;99.90;;;;;;5093519;28;20038;-73
2021/07/22 01:37:38;;;;;;;;;;;14.50;99.90;;;;;;5093956;28;20273;-73
2021/07/22 01:40:05;;;;;;;;;;;14.50;99.90;;;;;;5094641;28;19991;-73
2021/07/22 01:42:31;;;;;;;;;;;14.50;99.90;;;;;;5094375;28;20012;-73
2021/07/22 01:44:56;;;;;;;;;;;14.60;99.90;;;;;;5094547;28;20391;-74
2021/07/22 01:47:21;;;;;;;;;;;14.70;99.90;;;;;;5092641;28;20053;-73
2021/07/22 01:49:47;;;;;;;;;;;14.70;99.90;;;;;;5094553;28;19914;-73
2021/07/22 01:52:12;;;;;;;;;;;14.70;99.90;;;;;;5092544;28;19912;-73
2021/07/22 01:54:38;;;;;;;;;;;14.70;99.90;;;;;;5093267;28;19966;-73
2021/07/22 01:57:04;;;;;;;;;;;14.60;99.90;;;;;;5093810;28;19912;-73
2021/07/22 01:59:35;;;;;;;;;;;14.60;99.90;;;;;;5094167;28;19923;-73
2021/07/22 02:02:02;;;;;;;;;;;14.60;99.90;;;;;;5093709;28;19962;-74
2021/07/22 02:04:27;;;;;;;;;;;14.60;99.90;;;;;;5094351;28;19908;-74
2021/07/22 02:06:53;;;;;;;;;;;14.60;99.90;;;;;;5093833;28;20422;-73
2021/07/22 02:09:18;;;;;;;;;;;14.60;99.90;;;;;;5093862;28;20422;-73
2021/07/22 02:11:43;;;;;;;;;;;14.50;99.90;;;;;;5094240;28;19958;-73
2021/07/22 02:14:09;;;;;;;;;;;14.50;99.90;;;;;;5093914;28;19911;-73
2021/07/22 02:16:34;;;;;;;;;;;14.50;99.90;;;;;;5093754;28;20347;-73
2021/07/22 02:19:00;;;;;;;;;;;14.50;99.90;;;;;;5093840;28;19934;-73
2021/07/22 02:21:25;;;;;;;;;;;14.40;99.90;;;;;;5093336;28;19908;-73
2021/07/22 02:23:51;;;;;;;;;;;14.40;99.90;;;;;;5093613;28;19970;-74
2021/07/22 02:26:16;;;;;;;;;;;14.40;99.90;;;;;;5093590;28;19908;-73
2021/07/22 02:28:42;;;;;;;;;;;14.40;99.90;;;;;;5094118;28;19908;-73
2021/07/22 02:31:07;;;;;;;;;;;14.40;99.90;;;;;;5092064;28;19913;-73
2021/07/22 02:33:33;;;;;;;;;;;14.30;99.90;;;;;;5093707;28;19915;-73
2021/07/22 02:35:58;;;;;;;;;;;14.30;99.90;;;;;;5091877;28;19909;-73
2021/07/22 02:38:24;;;;;;;;;;;14.30;99.90;;;;;;5090380;28;19931;-73
2021/07/22 02:40:49;;;;;;;;;;;14.30;99.90;;;;;;5090407;28;19916;-73
2021/07/22 02:43:15;;;;;;;;;;;14.30;99.90;;;;;;5091170;28;19908;-73
2021/07/22 02:45:40;;;;;;;;;;;14.20;99.90;;;;;;5090945;28;19915;-73
2021/07/22 02:48:06;;;;;;;;;;;14.20;99.90;;;;;;5090661;28;19947;-73
2021/07/22 02:50:32;;;;;;;;;;;14.20;99.90;;;;;;5091514;28;20352;-73
2021/07/22 02:53:00;;;;;;;;;;;14.10;99.90;;;;;;5093515;28;19915;-73
2021/07/22 02:55:25;;;;;;;;;;;14.10;99.90;;;;;;5093280;28;20440;-73
2021/07/22 02:57:51;;;;;;;;;;;14.10;99.90;;;;;;5093016;28;20003;-73
2021/07/22 03:00:17;;;;;;;;;;;14.00;99.90;;;;;;5092525;28;20044;-73
2021/07/22 03:02:42;;;;;;;;;;;14.00;99.90;;;;;;5093164;28;19908;-73
2021/07/22 03:05:08;;;;;;;;;;;14.00;99.90;;;;;;5093095;28;19908;-73
2021/07/22 03:07:33;;;;;;;;;;;14.00;99.90;;;;;;5092534;28;19909;-73
2021/07/22 03:09:59;;;;;;;;;;;13.90;99.90;;;;;;5092990;28;20353;-73
2021/07/22 03:12:24;;;;;;;;;;;13.80;99.90;;;;;;5093008;28;19953;-73
2021/07/22 03:14:50;;;;;;;;;;;13.80;99.90;;;;;;5093182;28;19919;-73
2021/07/22 03:17:15;;;;;;;;;;;13.80;99.90;;;;;;5092383;28;20021;-73
2021/07/22 03:19:41;;;;;;;;;;;13.80;99.90;;;;;;5092907;28;19977;-73
2021/07/22 03:22:06;;;;;;;;;;;13.70;99.90;;;;;;5092752;28;20411;-73
2021/07/22 03:24:32;;;;;;;;;;;13.70;99.90;;;;;;5091629;28;19920;-74
2021/07/22 03:26:57;;;;;;;;;;;13.60;99.90;;;;;;5092138;28;19994;-73
2021/07/22 03:29:23;;;;;;;;;;;13.60;99.90;;;;;;5092824;28;19908;-73
2021/07/22 03:31:48;;;;;;;;;;;13.60;99.90;;;;;;5091467;28;19912;-73
2021/07/22 03:34:14;;;;;;;;;;;13.60;99.90;;;;;;5092648;28;20000;-73
2021/07/22 03:36:41;;;;;;;;;;;13.60;99.90;;;;;;5090683;28;20361;-73
2021/07/22 03:39:06;;;;;;;;;;;13.50;99.90;;;;;;5092545;28;19953;-73
2021/07/22 03:41:31;;;;;;;;;;;13.50;99.90;;;;;;5092107;28;19908;-73
2021/07/22 03:43:57;;;;;;;;;;;13.50;99.90;;;;;;5092350;28;19915;-73
2021/07/22 03:46:22;;;;;;;;;;;13.50;99.90;;;;;;5092014;28;19974;-73
2021/07/22 03:48:48;;;;;;;;;;;13.40;99.90;;;;;;5091114;28;19908;-73
2021/07/22 03:51:13;;;;;;;;;;;13.40;99.90;;;;;;5092300;28;19912;-73
2021/07/22 03:53:39;;;;;;;;;;;13.40;99.90;;;;;;5092014;28;20114;-73
2021/07/22 03:56:04;;;;;;;;;;;13.50;99.90;;;;;;5091891;28;19975;-73
2021/07/22 03:58:30;;;;;;;;;;;13.50;99.90;;;;;;5091911;28;20283;-73
2021/07/22 04:00:57;;;;;;;;;;;13.50;99.90;;;;;;5091257;28;20361;-73
2021/07/22 04:03:26;;;;;;;;;;;13.50;99.90;;;;;;5091785;28;19915;-73
2021/07/22 04:05:52;;;;;;;;;;;13.50;99.90;;;;;;5092120;28;20312;-73
2021/07/22 04:08:18;;;;;;;;;;;13.50;99.90;;;;;;5091356;28;20591;-73
2021/07/22 04:10:43;;;;;;;;;;;13.50;99.90;;;;;;5090746;28;19998;-73
2021/07/22 04:13:08;;;;;;;;;;;13.50;99.90;;;;;;5091821;28;20003;-73
2021/07/22 04:15:34;;;;;;;;;;;13.50;99.90;;;;;;5091976;28;19995;-73
2021/07/22 04:18:00;;;;;;;;;;;13.50;99.90;;;;;;5091568;28;19912;-73
2021/07/22 04:20:27;;;;;;;;;;;13.60;99.90;;;;;;5091740;28;19916;-73
2021/07/22 04:22:56;;;;;;;;;;;13.70;99.90;;;;;;5091877;28;20349;-73
2021/07/22 04:25:21;;;;;;;;;;;13.80;99.90;;;;;;5091693;28;20319;-73
2021/07/22 04:27:47;;;;;;;;;;;13.90;99.90;;;;;;5091364;28;19909;-73
2021/07/22 04:30:13;;;;;;;;;;;13.90;99.90;;;;;;5090509;28;19912;-73
2021/07/22 04:32:38;;;;;;;;;;;14.00;99.90;;;;;;5091491;28;20331;-73
2021/07/22 04:35:07;;;;;;;;;;;13.90;99.90;;;;;;5090133;28;19955;-73
2021/07/22 04:37:33;;;;;;;;;;;14.00;99.90;;;;;;5089863;28;19908;-73
2021/07/22 04:39:58;;;;;;;;;;;14.00;99.90;;;;;;5091540;28;19908;-73
2021/07/22 04:42:24;;;;;;;;;;;14.10;99.90;;;;;;5091654;28;19915;-73
2021/07/22 04:44:49;;;;;;;;;;;14.10;99.90;;;;;;5091393;28;19916;-73
2021/07/22 04:47:15;;;;;;;;;;;14.20;99.90;;;;;;5091044;28;19908;-73
2021/07/22 04:49:40;;;;;;;;;;;14.20;99.90;;;;;;5091507;28;19913;-73
2021/07/22 04:52:06;;;;;;;;;;;14.30;99.90;;;;;;5091211;28;20327;-73
2021/07/22 04:54:31;;;;;;;;;;;14.30;99.90;;;;;;5098265;28;19909;-73
2021/07/22 04:56:57;;;;;;;;;;;14.40;99.90;;;;;;5097599;28;20323;-73
2021/07/22 04:59:22;;;;;;;;;;;14.40;99.90;;;;;;5098149;28;20357;-73
2021/07/22 05:01:48;;;;;;;;;;;14.50;99.90;;;;;;5096831;28;19916;-73
2021/07/22 05:04:18;;;;;;;;;;;14.60;99.90;;;;;;5098097;28;20377;-73
2021/07/22 05:06:43;;;;;;;;;;;14.70;99.90;;;;;;5096106;28;19978;-73
2021/07/22 05:09:09;;;;;;;;;;;14.80;99.90;;;;;;5098072;28;19908;-73
2021/07/22 05:11:35;;;;;;;;;;;14.90;99.90;;;;;;5097804;28;20024;-73
2021/07/22 05:14:00;;;;;;;;;;;15.10;99.90;;;;;;5097953;28;19908;-73
2021/07/22 05:16:25;;;;;;;;;;;15.20;99.90;;;;;;5097092;28;19947;-73
2021/07/22 05:18:51;;;;;;;;;;;15.30;99.90;;;;;;5096718;28;19908;-73
2021/07/22 05:21:17;;;;;;;;;;;15.50;99.90;;;;;;5096375;28;20494;-73
2021/07/22 05:23:42;;;;;;;;;;;15.60;99.90;;;;;;5098036;28;19908;-73
2021/07/22 05:26:11;;;;;;;;;;;15.70;99.90;;;;;;5097490;28;19994;-73
2021/07/22 05:28:37;;;;;;;;;;;15.80;99.90;;;;;;5097743;28;19961;-73
2021/07/22 05:31:10;;;;;;;;;;;15.90;99.90;;;;;;5096817;28;20049;-73
2021/07/22 05:33:36;;;;;;;;;;;15.90;99.90;;;;;;5097576;28;19908;-73
2021/07/22 05:36:03;;;;;;;;;;;15.90;99.90;;;;;;5097514;28;19908;-73
2021/07/22 05:38:32;;;;;;;;;;;15.90;99.90;;;;;;5097631;28;19991;-73
2021/07/22 05:41:00;;;;;;;;;;;15.90;99.90;;;;;;5097953;28;19915;-73
2021/07/22 05:43:28;;;;;;;;;;;15.90;99.90;;;;;;5097702;28;19908;-73
2021/07/22 05:45:54;;;;;;;;;;;16.00;99.90;;;;;;5097562;28;19955;-74
2021/07/22 05:48:20;;;;;;;;;;;16.20;99.90;;;;;;5097215;28;20466;-73
2021/07/22 05:50:46;;;;;;;;;;;16.40;99.90;;;;;;5097806;28;19913;-74
2021/07/22 05:53:12;;;;;;;;;;;16.90;99.90;;;;;;5097627;28;19907;-73
2021/07/22 05:55:37;;;;;;;;;;;17.30;99.90;;;;;;5097795;28;19961;-73
2021/07/22 05:58:03;;;;;;;;;;;17.60;99.90;;;;;;5097150;28;19908;-73
2021/07/22 06:00:28;;;;;;;;;;;17.70;99.90;;;;;;5096769;28;20269;-73
2021/07/22 06:02:54;;;;;;;;;;;17.70;99.90;;;;;;5097419;28;19972;-73
2021/07/22 06:05:19;;;;;;;;;;;17.90;99.90;;;;;;5094589;28;19969;-73
2021/07/22 06:07:46;;;;;;;;;;;18.10;99.90;;;;;;5093975;28;19908;-73
2021/07/22 06:10:12;;;;;;;;;;;18.30;99.90;;;;;;5094266;28;19909;-74
2021/07/22 06:12:37;;;;;;;;;;;18.50;99.90;;;;;;5094459;28;20368;-73
2021/07/22 06:15:03;;;;;;;;;;;18.50;99.90;;;;;;5093972;28;19908;-73
2021/07/22 06:17:28;;;;;;;;;;;18.40;99.90;;;;;;5093395;28;20402;-73
2021/07/22 06:19:54;;;;;;;;;;;18.30;99.90;;;;;;5094043;28;19908;-73
2021/07/22 06:22:19;;;;;;;;;;;18.20;99.90;;;;;;5094253;28;19912;-74
2021/07/22 06:24:45;;;;;;;;;;;18.30;99.90;;;;;;5093813;28;20288;-74
2021/07/22 06:27:12;;;;;;;;;;;18.70;99.90;;;;;;5093651;28;20281;-74
2021/07/22 06:29:37;;;;;;;;;;;19.10;99.90;;;;;;5092944;28;20292;-73
2021/07/22 06:32:03;;;;;;;;;;;19.70;99.90;;;;;;5093316;28;20010;-74
2021/07/22 06:34:28;;;;;;;;;;;20.10;99.90;;;;;;5093738;28;19923;-73
2021/07/22 06:36:54;;;;;;;;;;;20.60;99.90;;;;;;5093690;28;20276;-73
2021/07/22 06:39:20;;;;;;;;;;;20.80;99.90;;;;;;5093481;28;19938;-73
2021/07/22 06:41:45;;;;;;;;;;;20.50;99.90;;;;;;5092340;28;19915;-73
2021/07/22 06:44:11;;;;;;;;;;;20.20;99.90;;;;;;5093482;28;19999;-74
2021/07/22 06:46:36;;;;;;;;;;;20.00;99.90;;;;;;5092799;28;19920;-73
2021/07/22 06:49:02;;;;;;;;;;;19.70;99.90;;;;;;5093699;28;20277;-73
2021/07/22 06:51:27;;;;;;;;;;;19.40;99.90;;;;;;5093126;28;19912;-73
2021/07/22 06:53:54;;;;;;;;;;;19.50;99.90;;;;;;5092266;28;19909;-73
2021/07/22 06:56:19;;;;;;;;;;;19.90;99.90;;;;;;5092846;28;19915;-73
2021/07/22 06:58:46;;;;;;;;;;;20.50;99.90;;;;;;5093343;28;20360;-73
2021/07/22 07:01:12;;;;;;;;;;;21.40;99.90;;;;;;5085906;28;20614;-73
2021/07/22 07:03:37;;;;;;;;;;;22.00;99.90;;;;;;5084643;28;19961;-73
2021/07/22 07:06:02;;;;;;;;;;;22.70;99.90;;;;;;5082843;28;19935;-73
2021/07/22 07:08:28;;;;;;;;;;;23.20;99.90;;;;;;5088333;28;19908;-73
2021/07/22 07:10:53;;;;;;;;;;;23.80;99.90;;;;;;5100775;28;19976;-74
2021/07/22 07:13:19;;;;;;;;;;;24.50;99.90;;;;;;5092448;28;19914;-73
2021/07/22 07:15:44;;;;;;;;;;;24.80;99.90;;;;;;5087052;28;19908;-74
2021/07/22 07:18:10;;;;;;;;;;;25.20;99.00;;;;;;5090921;28;19963;-74
2021/07/22 07:20:36;;;;;;;;;;;25.30;98.20;;;;;;5075847;28;20015;-74
2021/07/22 07:23:02;;;;;;;;;;;25.60;97.70;;;;;;5082725;28;19915;-74
2021/07/22 07:25:27;;;;;;;;;;;25.80;97.00;;;;;;5077252;28;20285;-74
2021/07/22 07:27:53;;;;;;;;;;;26.00;97.10;;;;;;5091752;28;19908;-74
2021/07/22 07:30:20;;;;;;;;;;;25.80;96.40;;;;;;5091564;28;19912;-74
2021/07/22 07:32:46;;;;;;;;;;;25.90;96.60;;;;;;5081884;28;19916;-74
2021/07/22 07:35:12;;;;;;;;;;;26.20;98.10;;;;;;5092442;28;19912;-74
2021/07/22 07:37:37;;;;;;;;;;;26.30;95.80;;;;;;5087360;28;19908;-74
2021/07/22 07:40:03;;;;;;;;;;;26.30;95.30;;;;;;5084704;28;20369;-74
2021/07/22 07:42:29;;;;;;;;;;;26.40;95.80;;;;;;5090677;28;19953;-74
2021/07/22 07:44:54;;;;;;;;;;;26.70;95.60;;;;;;5088105;28;19923;-74
2021/07/22 07:47:20;;;;;;;;;;;26.90;95.00;;;;;;5084376;28;19919;-74
2021/07/22 07:49:45;;;;;;;;;;;27.10;95.60;;;;;;5091651;28;19909;-74
2021/07/22 07:52:11;;;;;;;;;;;27.30;95.60;;;;;;5088469;28;20326;-74
2021/07/22 07:54:36;;;;;;;;;;;27.20;94.60;;;;;;5087736;28;20006;-74
2021/07/22 07:57:02;;;;;;;;;;;27.40;96.30;;;;;;5088505;28;19908;-74
2021/07/22 07:59:27;;;;;;;;;;;27.50;96.40;;;;;;5086450;28;20003;-74
2021/07/22 08:01:53;;;;;;;;;;;27.70;94.70;;;;;;5085493;28;19908;-74
2021/07/22 08:04:18;;;;;;;;;;;27.70;94.40;;;;;;5091659;28;19980;-74
2021/07/22 08:06:44;;;;;;;;;;;28.00;94.60;;;;;;5091546;28;19908;-74
2021/07/22 08:09:09;;;;;;;;;;;28.10;94.20;;;;;;5088474;28;19912;-74
2021/07/22 08:11:35;;;;;;;;;;;28.40;93.70;;;;;;5087661;28;19958;-75
2021/07/22 08:14:00;;;;;;;;;;;28.20;92.40;;;;;;5076574;28;20364;-74
2021/07/22 08:16:26;;;;;;;;;;;28.30;92.20;;;;;;5079906;28;19916;-74
2021/07/22 08:18:51;;;;;;;;;;;28.30;91.90;;;;;;5091604;28;19961;-74
2021/07/22 08:21:17;;;;;;;;;;;28.40;91.30;;;;;;5091662;28;19966;-74
2021/07/22 08:23:43;;;;;;;;;;;28.40;91.00;;;;;;5092136;28;20372;-74
2021/07/22 08:26:09;;;;;;;;;;;28.40;91.30;;;;;;5100117;28;19907;-74
2021/07/22 08:28:35;;;;;;;;;;;28.50;91.50;;;;;;5084387;28;19915;-74
2021/07/22 08:31:01;;;;;;;;;;;28.30;91.50;;;;;;5087467;28;19924;-74
2021/07/22 08:33:26;;;;;;;;;;;28.30;91.40;;;;;;5085725;28;19908;-74
2021/07/22 08:35:52;;;;;;;;;;;28.10;93.40;;;;;;5089358;28;20271;-74
2021/07/22 08:38:17;;;;;;;;;;;28.10;91.00;;;;;;5075341;28;19908;-74
2021/07/22 08:40:43;;;;;;;;;;;28.30;92.90;;;;;;5090016;28;20045;-74
2021/07/22 08:43:08;;;;;;;;;;;28.50;93.10;;;;;;5089691;28;19908;-74
2021/07/22 08:45:34;;;;;;;;;;;28.80;91.70;;;;;;5079937;28;19920;-74
2021/07/22 08:48:00;;;;;;;;;;;28.90;90.20;;;;;;5086814;28;19916;-74
2021/07/22 08:50:26;;;;;;;;;;;28.90;93.00;;;;;;5077303;28;19969;-74
2021/07/22 08:52:51;;;;;;;;;;;29.20;91.10;;;;;;5088781;28;19908;-74
2021/07/22 08:55:17;;;;;;;;;;;29.30;90.00;;;;;;5073106;28;19998;-74
2021/07/22 08:57:43;;;;;;;;;;;29.40;89.50;;;;;;5085306;28;19909;-74
2021/07/22 09:00:09;;;;;;;;;;;29.70;91.70;;;;;;5089833;28;19999;-74
2021/07/22 09:02:35;;;;;;;;;;;29.70;84.60;;;;;;5084299;28;19908;-74
2021/07/22 09:05:01;;;;;;;;;;;29.00;85.00;;;;;;5088287;28;19955;-74
2021/07/22 09:07:27;;;;;;;;;;;29.10;91.10;;;;;;5088452;28;20317;-74
2021/07/22 09:10:05;;;;;;;;;;;29.00;86.00;;;;;;5080399;28;19912;-74
2021/07/22 09:12:42;;;;;;;;;;;29.10;92.50;;;;;;5084658;28;19920;-74
2021/07/22 09:15:09;;;;;;;;;;;29.20;86.80;;;;;;5086133;28;19974;-74
2021/07/22 09:17:35;;;;;;;;;;;29.20;86.20;;;;;;5090124;28;19961;-75
2021/07/22 09:20:00;;;;;;;;;;;29.50;86.40;;;;;;5090492;28;19916;-74
2021/07/22 09:22:36;;;;;;;;;;;29.20;84.10;;;;;;5072358;28;19908;-74
2021/07/22 09:25:02;;;;;;;;;;;29.10;81.90;;;;;;5086814;28;19989;-74
2021/07/22 09:27:40;;;;;;;;;;;29.20;89.40;;;;;;5098111;28;19934;-74
2021/07/22 09:30:10;;;;;;;;;;;29.10;85.00;;;;;;5087393;28;19908;-74
2021/07/22 09:32:37;;;;;;;;;;;29.10;81.90;;;;;;5091316;28;19980;-74
2021/07/22 09:35:15;;;;;;;;;;;29.10;87.70;;;;;;5111412;28;19912;-74
2021/07/22 09:37:48;;;;;;;;;;;29.30;84.80;;;;;;5077176;28;20007;-74
2021/07/22 09:40:17;;;;;;;;;;;29.40;87.70;;;;;;5092416;28;19908;-74
2021/07/22 09:42:46;;;;;;;;;;;29.70;83.90;;;;;;5091217;28;19908;-74
2021/07/22 09:45:35;;;;;;;;;;;29.90;83.10;;;;;;5108841;28;20455;-74
2021/07/22 09:48:08;;;;;;;;;;;29.60;80.00;;;;;;5087291;28;20359;-74
2021/07/22 09:50:40;;;;;;;;;;;29.70;81.40;;;;;;5083461;28;20343;-74
2021/07/22 09:53:08;;;;;;;;;;;29.80;84.80;;;;;;5085248;28;19915;-74
2021/07/22 09:55:33;;;;;;;;;;;30.00;85.00;;;;;;5094536;28;19934;-74
2021/07/22 09:58:03;;;;;;;;;;;30.30;82.30;;;;;;5083384;28;19913;-74
2021/07/22 10:00:29;;;;;;;;;;;30.30;83.80;;;;;;5079013;28;19916;-74
2021/07/22 10:02:56;;;;;;;;;;;30.30;82.80;;;;;;5077101;28;19919;-74
2021/07/22 10:05:23;;;;;;;;;;;30.10;80.00;;;;;;5082491;28;20031;-74
2021/07/22 10:07:49;;;;;;;;;;;29.70;80.60;;;;;;5090872;28;19970;-74
2021/07/22 10:10:15;;;;;;;;;;;29.70;87.40;;;;;;5089105;28;19908;-74
2021/07/22 10:12:43;;;;;;;;;;;29.80;80.30;;;;;;5088940;28;19908;-74
2021/07/22 10:15:08;;;;;;;;;;;30.20;80.00;;;;;;5092839;28;20364;-74
2021/07/22 10:17:35;;;;;;;;;;;30.50;82.40;;;;;;5085587;28;19916;-74
2021/07/22 10:20:03;;;;;;;;;;;30.90;78.20;;;;;;5084838;28;20146;-74
2021/07/22 10:22:29;;;;;;;;;;;31.30;83.50;;;;;;5082342;28;19916;-74
2021/07/22 10:24:55;;;;;;;;;;;31.70;81.40;;;;;;5078022;28;19908;-74
2021/07/22 10:27:21;;;;;;;;;;;31.70;75.40;;;;;;5093144;28;19927;-74
2021/07/22 10:29:47;;;;;;;;;;;31.80;79.00;;;;;;5092088;28;19908;-74
2021/07/22 10:32:16;;;;;;;;;;;31.70;77.00;;;;;;5087322;28;19912;-74
2021/07/22 10:34:41;;;;;;;;;;;31.50;77.80;;;;;;5078038;28;19923;-74
2021/07/22 10:37:07;;;;;;;;;;;31.60;76.70;;;;;;5086305;28;19908;-74
2021/07/22 10:39:51;;;;;;;;;;;31.60;81.30;;;;;;5092467;28;20174;-74
2021/07/22 10:42:35;;;;;;;;;;;31.70;77.50;;;;;;5088489;28;20269;-74
2021/07/22 10:45:00;;;;;;;;;;;31.90;82.90;;;;;;5077117;28;19955;-74
2021/07/22 10:47:46;;;;;;;;;;;31.90;73.20;;;;;;5076857;28;19979;-74
2021/07/22 10:50:11;;;;;;;;;;;32.00;79.50;;;;;;5090641;28;20015;-74
2021/07/22 10:53:15;;;;;;;;;;;32.00;78.80;;;;;;5091813;28;19991;-74
2021/07/22 10:55:45;;;;;;;;;;;31.80;72.50;;;;;;5050447;28;19909;-74
2021/07/22 10:58:29;;;;;;;;;;;31.70;72.60;;;;;;5032759;28;19912;-74
2021/07/22 11:00:55;;;;;;;;;;;31.40;76.90;;;;;;5074187;28;19915;-74
2021/07/22 11:03:32;;;;;;;;;;;31.20;75.80;;;;;;5093054;28;20003;-75
2021/07/22 11:05:58;;;;;;;;;;;31.20;77.20;;;;;;5092626;28;19908;-74
2021/07/22 11:08:25;;;;;;;;;;;31.30;81.40;;;;;;5082410;28;19916;-74
2021/07/22 11:10:52;;;;;;;;;;;31.60;77.60;;;;;;5085166;28;19957;-74
2021/07/22 11:13:36;;;;;;;;;;;31.80;79.10;;;;;;5090949;28;20012;-74
2021/07/22 11:16:03;;;;;;;;;;;31.90;73.90;;;;;;5100153;28;19915;-74
2021/07/22 11:18:43;;;;;;;;;;;31.80;82.70;;;;;;5091201;28;19955;-74
2021/07/22 11:21:13;;;;;;;;;;;31.90;75.40;;;;;;5092544;28;20308;-74
2021/07/22 11:23:40;;;;;;;;;;;32.10;75.30;;;;;;5081887;28;20376;-74
2021/07/22 11:26:05;;;;;;;;;;;32.20;75.30;;;;;;5090579;28;20357;-74
2021/07/22 11:28:31;;;;;;;;;;;32.60;75.80;;;;;;5085413;28;19999;-74
2021/07/22 11:31:04;;;;;;;;;;;32.80;77.00;;;;;;5084207;28;20361;-74
2021/07/22 11:33:33;;;;;;;;;;;33.10;70.90;;;;;;5085652;28;19966;-74
2021/07/22 11:36:00;;;;;;;;;;;32.90;70.00;;;;;;5084171;28;19970;-74
2021/07/22 11:38:26;;;;;;;;;;;32.50;71.10;;;;;;5089502;28;19948;-74
2021/07/22 11:40:52;;;;;;;;;;;32.30;72.70;;;;;;5083360;28;19955;-74
2021/07/22 11:43:50;;;;;;;;;;;32.10;71.90;;;;;;5081694;28;19915;-74
2021/07/22 11:46:16;;;;;;;;;;;31.80;71.80;;;;;;5030006;28;19916;-74
2021/07/22 11:48:42;;;;;;;;;;;31.60;72.10;;;;;;5073651;28;19909;-74
2021/07/22 11:51:08;;;;;;;;;;;31.50;71.90;;;;;;5112269;28;19926;-74
2021/07/22 11:53:35;;;;;;;;;;;31.40;75.30;;;;;;5080170;28;19955;-74
2021/07/22 11:56:13;;;;;;;;;;;31.40;73.90;;;;;;5082407;28;19938;-74
2021/07/22 11:58:39;;;;;;;;;;;31.40;71.80;;;;;;5072866;28;19908;-74
2021/07/22 12:01:06;;;;;;;;;;;31.40;75.10;;;;;;5072036;28;19915;-74
2021/07/22 12:03:31;;;;;;;;;;;31.30;75.30;;;;;;5074867;28;19915;-74
2021/07/22 12:05:57;;;;;;;;;;;31.20;75.80;;;;;;5079306;28;19908;-74
2021/07/22 12:08:23;;;;;;;;;;;30.90;75.50;;;;;;5086678;28;19909;-72
2021/07/22 12:10:49;;;;;;;;;;;30.70;75.40;;;;;;5087563;28;19923;-73
2021/07/22 12:13:15;;;;;;;;;;;30.60;74.40;;;;;;5090904;28;19908;-72
2021/07/22 12:15:42;;;;;;;;;;;30.80;74.80;;;;;;5091502;28;19934;-74
2021/07/22 12:18:08;;;;;;;;;;;30.80;72.20;;;;;;5081900;28;19962;-74
2021/07/22 12:20:33;;;;;;;;;;;30.90;72.90;;;;;;5083683;28;20432;-74
2021/07/22 12:22:59;;;;;;;;;;;31.00;75.50;;;;;;5076934;28;19991;-74
2021/07/22 12:25:27;;;;;;;;;;;30.90;72.70;;;;;;5078293;28;19955;-74
2021/07/22 12:27:53;;;;;;;;;;;30.90;73.40;;;;;;5077754;28;19908;-74
2021/07/22 12:30:25;;;;;;;;;;;30.80;83.40;;;;;;5086905;28;19916;-74
2021/07/22 12:32:50;;;;;;;;;;;30.90;74.90;;;;;;5072459;28;19916;-74
2021/07/22 12:35:38;;;;;;;;;;;31.00;77.40;;;;;;5096391;28;20365;-75
2021/07/22 12:38:07;;;;;;;;;;;31.20;71.90;;;;;;5088117;28;20365;-74
2021/07/22 12:40:36;;;;;;;;;;;31.60;76.80;;;;;;5088084;28;19916;-74
2021/07/22 12:43:02;;;;;;;;;;;32.00;72.20;;;;;;5069701;28;19909;-74
2021/07/22 12:45:28;;;;;;;;;;;32.20;69.10;;;;;;5085279;28;19916;-74
2021/07/22 12:47:53;;;;;;;;;;;32.00;71.00;;;;;;5076653;28;19916;-74
2021/07/22 12:50:28;;;;;;;;;;;32.00;81.20;;;;;;5091060;28;20326;-75
2021/07/22 12:52:53;;;;;;;;;;;32.10;69.60;;;;;;5083206;28;19913;-74
2021/07/22 12:55:48;;;;;;;;;;;32.30;70.30;;;;;;5070451;28;19923;-74
2021/07/22 12:58:24;;;;;;;;;;;32.00;72.80;;;;;;5072260;28;19960;-74
2021/07/22 13:00:57;;;;;;;;;;;31.90;72.80;;;;;;5083485;28;19908;-74
2021/07/22 13:03:23;;;;;;;;;;;31.60;74.60;;;;;;5084732;28;19908;-74
2021/07/22 13:05:48;;;;;;;;;;;31.80;76.70;;;;;;5088809;28;19933;-74
2021/07/22 13:08:13;;;;;;;;;;;32.10;76.10;;;;;;5082893;28;20304;-75
2021/07/22 13:10:39;;;;;;;;;;;32.50;72.50;;;;;;5090481;28;19935;-75
2021/07/22 13:13:05;;;;;;;;;;;32.70;66.60;;;;;;5078177;28;20385;-74
2021/07/22 13:15:31;;;;;;;;;;;32.10;69.20;;;;;;5075537;28;19920;-74
2021/07/22 13:17:56;;;;;;;;;;;31.60;71.00;;;;;;5085758;28;20342;-74
2021/07/22 13:20:22;;;;;;;;;;;31.40;70.40;;;;;;5095100;28;19912;-74
2021/07/22 13:22:47;;;;;;;;;;;31.40;75.20;;;;;;5093289;28;19912;-74
2021/07/22 13:25:13;;;;;;;;;;;31.60;71.00;;;;;;5093474;28;19997;-74
2021/07/22 13:27:39;;;;;;;;;;;31.50;68.60;;;;;;5091972;28;19974;-74
2021/07/22 13:30:08;;;;;;;;;;;31.50;71.60;;;;;;5089429;28;19912;-74
2021/07/22 13:32:34;;;;;;;;;;;31.70;75.10;;;;;;5084768;28;19912;-74
2021/07/22 13:35:10;;;;;;;;;;;32.00;76.50;;;;;;5086674;28;20335;-74
2021/07/22 13:37:39;;;;;;;;;;;32.00;69.90;;;;;;5093252;28;19909;-74
2021/07/22 13:40:08;;;;;;;;;;;32.10;73.10;;;;;;5094526;28;19908;-74
2021/07/22 13:42:33;;;;;;;;;;;32.20;69.10;;;;;;5094029;28;19915;-74
2021/07/22 13:44:59;;;;;;;;;;;32.30;67.90;;;;;;5093565;28;19920;-74
2021/07/22 13:47:24;;;;;;;;;;;32.30;70.40;;;;;;5091975;28;19915;-75
2021/07/22 13:49:50;;;;;;;;;;;32.30;70.90;;;;;;5092957;28;19912;-75
2021/07/22 13:52:15;;;;;;;;;;;32.30;69.60;;;;;;5093094;28;20411;-75
2021/07/22 13:54:41;;;;;;;;;;;32.40;66.50;;;;;;5093199;28;19908;-75
2021/07/22 13:57:06;;;;;;;;;;;32.50;72.70;;;;;;5092813;28;19977;-75
2021/07/22 13:59:32;;;;;;;;;;;32.60;67.90;;;;;;5090765;28;19908;-75
2021/07/22 14:01:58;;;;;;;;;;;32.50;67.70;;;;;;5087015;28;19986;-75
2021/07/22 14:04:23;;;;;;;;;;;32.70;68.10;;;;;;5090737;28;19958;-75
2021/07/22 14:06:49;;;;;;;;;;;32.40;69.50;;;;;;5084526;28;19912;-75
2021/07/22 14:09:14;;;;;;;;;;;32.30;68.70;;;;;;5086379;28;20269;-75
2021/07/22 14:11:40;;;;;;;;;;;32.30;69.60;;;;;;5088612;28;20015;-75
2021/07/22 14:14:05;;;;;;;;;;;32.40;67.80;;;;;;5092603;28;19915;-75